createdAt,value
2018-11-03T00:01:50.175Z,12.20
2018-11-03T00:04:17.603Z,12.00
2018-11-03T00:06:45.022Z,10.60
2018-11-03T00:09:12.449Z,11.57
2018-11-03T00:11:39.870Z,10.97
2018-11-03T00:14:07.284Z,10.63
2018-11-03T00:16:34.737Z,10.63
2018-11-03T00:19:02.154Z,10.27
2018-11-03T00:21:29.579Z,9.60
2018-11-03T00:23:56.978Z,10.00
2018-11-03T00:26:24.403Z,10.50
2018-11-03T00:28:51.843Z,11.57
2018-11-03T00:31:19.243Z,11.70
2018-11-03T00:33:46.647Z,10.30
2018-11-03T00:36:14.073Z,11.23
2018-11-03T00:38:41.525Z,11.20
2018-11-03T00:41:08.937Z,13.00
2018-11-03T00:43:36.341Z,13.27
2018-11-03T00:46:03.756Z,12.77
2018-11-03T00:48:31.156Z,13.30
2018-11-03T00:50:58.570Z,12.03
2018-11-03T00:53:25.963Z,13.17
2018-11-03T00:55:53.375Z,15.17
2018-11-03T00:58:20.790Z,14.23
2018-11-03T01:00:48.215Z,12.83
2018-11-03T01:03:15.634Z,11.77
2018-11-03T01:05:43.076Z,12.63
2018-11-03T01:08:10.511Z,15.40
2018-11-03T01:10:37.908Z,12.60
2018-11-03T01:13:05.337Z,13.17
2018-11-03T01:15:32.733Z,13.50
2018-11-03T01:18:00.154Z,12.97
2018-11-03T01:20:27.594Z,15.57
2018-11-03T01:22:54.986Z,14.53
2018-11-03T01:25:22.418Z,14.43
2018-11-03T01:27:49.857Z,12.47
2018-11-03T01:30:17.254Z,14.80
2018-11-03T01:32:44.761Z,14.53
2018-11-03T01:35:12.099Z,14.90
2018-11-03T01:37:39.526Z,12.87
2018-11-03T01:40:06.913Z,13.90
2018-11-03T01:42:35.567Z,13.43
2018-11-03T01:45:02.965Z,15.13
2018-11-03T01:47:30.388Z,14.10
2018-11-03T01:49:57.831Z,14.50
2018-11-03T01:52:25.278Z,13.63
2018-11-03T01:54:52.679Z,11.73
2018-11-03T01:57:20.088Z,11.43
2018-11-03T01:59:47.511Z,10.63
2018-11-03T02:02:14.892Z,13.30
2018-11-03T02:04:42.339Z,14.73
2018-11-03T02:07:09.731Z,13.37
2018-11-03T02:09:37.153Z,13.40
2018-11-03T02:12:04.619Z,15.50
2018-11-03T02:14:32.074Z,14.37
2018-11-03T02:16:59.468Z,16.87
2018-11-03T02:19:26.890Z,16.23
2018-11-03T02:21:54.306Z,15.23
2018-11-03T02:24:21.734Z,17.93
2018-11-03T02:26:49.162Z,19.00
2018-11-03T02:29:16.592Z,16.70
2018-11-03T02:31:44.000Z,20.83
2018-11-03T02:34:11.411Z,14.70
2018-11-03T02:36:38.846Z,13.87
2018-11-03T02:39:06.262Z,16.53
2018-11-03T02:41:33.676Z,16.77
2018-11-03T02:44:01.099Z,14.73
2018-11-03T02:46:28.517Z,16.17
2018-11-03T02:48:55.934Z,15.33
2018-11-03T02:51:23.339Z,14.73
2018-11-03T02:53:50.781Z,15.93
2018-11-03T02:56:18.170Z,15.00
2018-11-03T02:58:45.604Z,15.77
2018-11-03T03:01:13.018Z,15.37
2018-11-03T03:03:40.416Z,15.87
2018-11-03T03:06:07.925Z,13.53
2018-11-03T03:08:35.264Z,13.23
2018-11-03T03:11:02.688Z,13.23
2018-11-03T03:13:30.110Z,11.43
2018-11-03T03:15:57.520Z,11.37
2018-11-03T03:18:24.933Z,12.03
2018-11-03T03:20:52.339Z,11.77
2018-11-03T03:23:19.766Z,10.90
2018-11-03T03:25:47.165Z,10.90
2018-11-03T03:28:14.609Z,10.90
2018-11-03T03:30:42.023Z,12.87
2018-11-03T03:33:09.449Z,13.53
2018-11-03T03:35:36.887Z,14.13
2018-11-03T03:38:04.302Z,14.10
2018-11-03T03:40:31.692Z,14.23
2018-11-03T03:42:59.138Z,13.77
2018-11-03T03:45:26.547Z,13.63
2018-11-03T03:47:53.962Z,15.77
2018-11-03T03:50:21.366Z,18.97
2018-11-03T03:52:48.769Z,18.67
2018-11-03T03:55:16.211Z,15.27
2018-11-03T03:57:43.619Z,13.90
2018-11-03T04:00:11.038Z,13.30
2018-11-03T04:02:38.442Z,11.80
2018-11-03T04:05:05.869Z,11.47
2018-11-03T04:07:33.256Z,13.93
2018-11-03T04:10:00.676Z,13.47
2018-11-03T04:12:28.068Z,12.60
2018-11-03T04:14:55.638Z,10.80
2018-11-03T04:17:23.010Z,12.77
2018-11-03T04:19:50.418Z,11.20
2018-11-03T04:22:17.819Z,10.77
2018-11-03T04:24:45.309Z,12.30
2018-11-03T04:27:12.731Z,10.40
2018-11-03T04:29:40.161Z,10.33
2018-11-03T04:32:07.576Z,10.47
2018-11-03T04:34:34.975Z,10.77
2018-11-03T04:37:02.405Z,10.20
2018-11-03T04:39:29.820Z,11.60
2018-11-03T04:41:57.246Z,13.60
2018-11-03T04:44:24.636Z,14.10
2018-11-03T04:46:52.060Z,20.77
2018-11-03T04:49:19.457Z,15.23
2018-11-03T04:51:46.868Z,15.17
2018-11-03T04:54:14.275Z,16.50
2018-11-03T04:56:41.677Z,15.93
2018-11-03T04:59:09.112Z,16.40
2018-11-03T05:01:36.497Z,15.87
2018-11-03T05:04:03.905Z,17.53
2018-11-03T05:06:31.345Z,19.40
2018-11-03T05:08:58.725Z,22.80
2018-11-03T05:11:26.152Z,21.47
2018-11-03T05:13:53.570Z,17.93
2018-11-03T05:16:20.954Z,18.87
2018-11-03T05:18:48.366Z,17.43
2018-11-03T05:21:15.849Z,18.97
2018-11-03T05:23:43.186Z,16.93
2018-11-03T05:26:10.602Z,19.10
2018-11-03T05:28:37.982Z,19.47
2018-11-03T05:31:05.430Z,20.90
2018-11-03T05:33:32.819Z,19.43
2018-11-03T05:36:00.217Z,21.47
2018-11-03T05:38:27.608Z,18.70
2018-11-03T05:40:55.045Z,20.20
2018-11-03T05:43:22.426Z,20.33
2018-11-03T05:45:49.837Z,18.20
2018-11-03T05:48:17.230Z,17.93
2018-11-03T05:50:44.662Z,19.63
2018-11-03T05:53:12.056Z,22.53
2018-11-03T05:55:39.482Z,18.47
2018-11-03T05:58:06.876Z,17.47
2018-11-03T06:00:34.295Z,16.33
2018-11-03T06:03:01.691Z,17.07
2018-11-03T06:05:29.117Z,14.23
2018-11-03T06:07:56.544Z,14.50
2018-11-03T06:10:23.945Z,16.33
2018-11-03T06:12:51.340Z,16.63
2018-11-03T06:15:18.813Z,19.93
2018-11-03T06:17:46.152Z,20.77
2018-11-03T06:20:13.544Z,17.73
2018-11-03T06:22:41.092Z,15.67
2018-11-03T06:25:08.378Z,18.73
2018-11-03T06:27:35.776Z,16.87
2018-11-03T06:30:03.210Z,17.03
2018-11-03T06:32:30.599Z,21.17
2018-11-03T06:34:59.279Z,20.57
2018-11-03T06:37:26.670Z,20.77
2018-11-03T06:39:54.085Z,17.80
2018-11-03T06:42:21.498Z,19.63
2018-11-03T06:44:48.899Z,19.23
2018-11-03T06:47:16.356Z,18.93
2018-11-03T06:49:43.741Z,18.13
2018-11-03T06:52:11.221Z,21.13
2018-11-03T06:54:38.555Z,22.03
2018-11-03T06:57:05.986Z,20.00
2018-11-03T06:59:33.414Z,20.87
2018-11-03T07:02:00.836Z,19.00
2018-11-03T07:04:28.247Z,19.73
2018-11-03T07:06:55.638Z,19.30
2018-11-03T07:09:23.091Z,17.47
2018-11-03T07:11:50.461Z,19.53
2018-11-03T07:14:17.849Z,17.87
2018-11-03T07:16:45.279Z,17.90
2018-11-03T07:19:12.691Z,19.17
2018-11-03T07:21:40.242Z,18.33
2018-11-03T07:24:07.524Z,19.17
2018-11-03T07:26:34.927Z,16.40
2018-11-03T07:29:02.350Z,18.70
2018-11-03T07:31:29.758Z,19.50
2018-11-03T07:33:57.172Z,21.47
2018-11-03T07:36:24.600Z,17.80
2018-11-03T07:38:52.033Z,21.53
2018-11-03T07:41:19.477Z,19.73
2018-11-03T07:43:46.837Z,21.50
2018-11-03T07:46:14.240Z,19.10
2018-11-03T07:48:41.783Z,19.67
2018-11-03T07:51:09.169Z,20.52
2018-11-03T07:53:36.569Z,20.47
2018-11-03T07:56:04.016Z,19.37
2018-11-03T07:58:31.435Z,20.67
2018-11-03T08:00:58.838Z,24.47
2018-11-03T08:03:26.273Z,29.33
2018-11-03T08:05:53.679Z,22.10
2018-11-03T08:08:21.108Z,25.00
2018-11-03T08:10:48.556Z,22.80
2018-11-03T08:13:16.402Z,20.47
2018-11-03T08:15:43.834Z,22.13
2018-11-03T08:18:11.243Z,18.90
2018-11-03T08:20:38.692Z,22.20
2018-11-03T08:23:06.099Z,25.80
2018-11-03T08:25:35.845Z,23.50
2018-11-03T08:28:00.945Z,22.67
2018-11-03T08:30:28.383Z,23.77
2018-11-03T08:32:55.779Z,21.03
2018-11-03T08:35:23.210Z,22.27
2018-11-03T08:37:50.617Z,22.33
2018-11-03T08:40:19.113Z,22.60
2018-11-03T08:42:45.490Z,23.87
2018-11-03T08:45:12.971Z,25.27
2018-11-03T08:47:40.395Z,26.23
2018-11-03T08:50:07.805Z,27.60
2018-11-03T08:52:35.342Z,27.50
2018-11-03T08:55:02.741Z,24.93
2018-11-03T08:57:30.176Z,28.17
2018-11-03T08:59:57.770Z,24.37
2018-11-03T09:02:25.039Z,27.23
2018-11-03T09:04:52.419Z,30.03
2018-11-03T09:07:19.916Z,25.87
2018-11-03T09:09:47.340Z,27.33
2018-11-03T09:12:14.793Z,25.77
2018-11-03T09:14:42.253Z,25.57
2018-11-03T09:17:09.632Z,24.43
2018-11-03T09:19:37.094Z,24.43
2018-11-03T09:22:04.487Z,23.93
2018-11-03T09:24:31.941Z,25.40
2018-11-03T09:26:59.352Z,27.97
2018-11-03T09:29:26.795Z,23.87
2018-11-03T09:31:54.226Z,28.00
2018-11-03T09:34:21.768Z,28.73
2018-11-03T09:36:49.181Z,25.10
2018-11-03T09:39:16.704Z,24.73
2018-11-03T09:41:44.021Z,23.50
2018-11-03T09:44:11.460Z,23.77
2018-11-03T09:46:38.863Z,25.63
2018-11-03T09:49:06.290Z,25.97
2018-11-03T09:51:33.758Z,21.73
2018-11-03T09:54:01.333Z,23.80
2018-11-03T09:56:28.912Z,22.97
2018-11-03T09:58:56.293Z,22.07
2018-11-03T10:01:23.735Z,22.07
2018-11-03T10:03:51.159Z,22.20
2018-11-03T10:06:18.591Z,22.03
2018-11-03T10:08:46.003Z,21.50
2018-11-03T10:11:13.417Z,20.77
2018-11-03T10:13:40.831Z,19.67
2018-11-03T10:16:08.350Z,20.17
2018-11-03T10:18:35.680Z,19.90
2018-11-03T10:21:03.084Z,19.73
2018-11-03T10:23:30.489Z,20.00
2018-11-03T10:25:57.912Z,19.87
2018-11-03T10:28:25.325Z,21.47
2018-11-03T10:30:52.775Z,18.20
2018-11-03T10:33:20.171Z,18.93
2018-11-03T10:35:47.559Z,18.90
2018-11-03T10:38:15.032Z,18.57
2018-11-03T10:40:42.475Z,18.07
2018-11-03T10:43:09.928Z,17.07
2018-11-03T10:45:37.387Z,17.73
2018-11-03T10:48:04.746Z,17.83
2018-11-03T10:50:32.190Z,14.17
2018-11-03T10:52:59.593Z,15.20
2018-11-03T10:55:27.022Z,13.73
2018-11-03T10:57:54.420Z,12.97
2018-11-03T11:00:21.917Z,13.57
2018-11-03T11:02:51.920Z,12.77
2018-11-03T11:05:37.352Z,12.20
2018-11-03T11:08:04.806Z,13.43
2018-11-03T11:10:32.217Z,12.57
2018-11-03T11:12:59.621Z,12.27
2018-11-03T11:15:27.036Z,12.90
2018-11-03T11:17:54.458Z,13.57
2018-11-03T11:20:21.851Z,13.90
2018-11-03T11:22:49.295Z,12.53
2018-11-03T11:25:16.735Z,11.70
2018-11-03T11:27:44.151Z,11.17
2018-11-03T11:30:11.554Z,9.97
2018-11-03T11:32:38.971Z,9.40
2018-11-03T11:35:06.357Z,8.70
2018-11-03T11:37:33.872Z,8.93
2018-11-03T11:40:01.245Z,9.07
2018-11-03T11:42:28.610Z,8.27
2018-11-03T11:44:56.025Z,7.37
2018-11-03T11:47:23.427Z,7.53
2018-11-03T11:49:50.865Z,8.47
2018-11-03T11:52:18.273Z,7.43
2018-11-03T11:54:45.701Z,8.43
2018-11-03T11:57:13.113Z,8.47
2018-11-03T11:59:40.516Z,7.67
2018-11-03T12:02:07.928Z,7.63
2018-11-03T12:04:35.347Z,6.63
2018-11-03T12:07:02.761Z,6.67
2018-11-03T12:09:30.492Z,6.57
2018-11-03T12:11:57.902Z,5.23
2018-11-03T12:14:25.315Z,4.47
2018-11-03T12:16:52.726Z,5.00
2018-11-03T12:19:20.122Z,4.90
2018-11-03T12:21:47.547Z,5.10
2018-11-03T12:24:14.957Z,5.13
2018-11-03T12:26:42.367Z,4.30
2018-11-03T12:29:09.758Z,5.80
2018-11-03T12:31:37.175Z,5.10
2018-11-03T12:34:04.579Z,4.83
2018-11-03T12:36:32.012Z,5.80
2018-11-03T12:38:59.420Z,6.30
2018-11-03T12:41:26.872Z,5.53
2018-11-03T12:43:54.281Z,5.33
2018-11-03T12:46:21.729Z,4.03
2018-11-03T12:48:49.152Z,4.00
2018-11-03T12:51:36.181Z,4.77
2018-11-03T12:54:03.618Z,5.20
2018-11-03T12:56:31.032Z,5.30
2018-11-03T12:58:58.477Z,5.00
2018-11-03T13:01:25.859Z,5.00
2018-11-03T13:03:53.294Z,4.50
2018-11-03T13:06:20.696Z,5.30
2018-11-03T13:08:48.138Z,4.30
2018-11-03T13:11:15.520Z,5.00
2018-11-03T13:13:42.936Z,4.70
2018-11-03T13:16:10.416Z,4.47
2018-11-03T13:18:37.852Z,4.23
2018-11-03T13:21:05.271Z,4.20
2018-11-03T13:23:32.665Z,3.80
2018-11-03T13:26:00.141Z,3.73
2018-11-03T13:28:28.419Z,4.30
2018-11-03T13:30:55.853Z,3.70
2018-11-03T13:33:23.269Z,3.40
2018-11-03T13:35:50.720Z,3.27
2018-11-03T13:38:18.126Z,3.23
2018-11-03T13:40:45.619Z,3.30
2018-11-03T13:43:12.952Z,3.30
2018-11-03T13:45:40.338Z,3.70
2018-11-03T13:48:07.769Z,3.80
2018-11-03T13:50:35.160Z,3.80
2018-11-03T13:53:02.589Z,3.80
2018-11-03T13:55:29.996Z,3.70
2018-11-03T13:57:57.441Z,4.23
2018-11-03T14:00:25.995Z,6.90
2018-11-03T14:02:53.423Z,4.57
2018-11-03T14:05:20.817Z,5.17
2018-11-03T14:07:48.243Z,4.57
2018-11-03T14:10:15.666Z,4.10
2018-11-03T14:12:43.053Z,4.27
2018-11-03T14:15:10.575Z,4.63
2018-11-03T14:17:37.920Z,4.60
2018-11-03T14:20:05.362Z,4.13
2018-11-03T14:22:32.759Z,4.13
2018-11-03T14:25:02.341Z,4.60
2018-11-03T14:27:27.689Z,4.30
2018-11-03T14:29:55.081Z,4.27
2018-11-03T14:32:22.534Z,3.57
2018-11-03T14:34:49.917Z,4.23
2018-11-03T14:37:17.315Z,4.60
2018-11-03T14:39:44.757Z,4.53
2018-11-03T14:42:12.150Z,4.73
2018-11-03T14:44:39.623Z,4.50
2018-11-03T14:47:06.972Z,4.40
2018-11-03T14:49:34.398Z,5.27
2018-11-03T14:52:01.817Z,6.57
2018-11-03T14:54:29.272Z,5.33
2018-11-03T14:56:56.689Z,4.67
2018-11-03T14:59:24.117Z,4.87
2018-11-03T15:01:51.511Z,5.00
2018-11-03T15:04:18.910Z,5.30
2018-11-03T15:06:46.335Z,5.20
2018-11-03T15:09:13.756Z,5.33
2018-11-03T15:11:41.184Z,5.30
2018-11-03T15:14:08.771Z,5.33
2018-11-03T15:16:36.004Z,4.73
2018-11-03T15:19:03.428Z,5.70
2018-11-03T15:21:30.829Z,5.80
2018-11-03T15:23:58.265Z,6.03
2018-11-03T15:26:25.676Z,5.80
2018-11-03T15:28:53.111Z,5.47
2018-11-03T15:31:20.496Z,5.60
2018-11-03T15:33:47.909Z,5.93
2018-11-03T15:36:15.306Z,6.37
2018-11-03T15:38:42.730Z,5.37
2018-11-03T15:41:10.194Z,6.33
2018-11-03T15:43:37.573Z,6.60
2018-11-03T15:46:04.979Z,6.13
2018-11-03T15:48:32.395Z,6.00
2018-11-03T15:50:59.848Z,6.27
2018-11-03T15:53:27.221Z,6.23
2018-11-03T15:55:54.615Z,6.10
2018-11-03T15:58:22.072Z,5.83
2018-11-03T16:00:49.470Z,7.37
2018-11-03T16:03:16.912Z,7.03
2018-11-03T16:05:44.320Z,6.30
2018-11-03T16:08:11.745Z,6.40
2018-11-03T16:10:39.150Z,7.27
2018-11-03T16:13:06.620Z,6.90
2018-11-03T16:15:33.980Z,7.73
2018-11-03T16:18:01.385Z,10.47
2018-11-03T16:20:28.839Z,8.70
2018-11-03T16:22:56.256Z,8.23
2018-11-03T16:25:23.691Z,8.50
2018-11-03T16:27:51.138Z,7.90
2018-11-03T16:30:18.556Z,8.30
2018-11-03T16:32:45.978Z,7.17
2018-11-03T16:35:13.374Z,7.50
2018-11-03T16:37:40.785Z,7.60
2018-11-03T16:40:08.214Z,8.27
2018-11-03T16:42:35.673Z,9.07
2018-11-03T16:45:03.119Z,7.53
2018-11-03T16:47:30.513Z,8.63
2018-11-03T16:49:57.957Z,9.13
2018-11-03T16:52:25.438Z,8.23
2018-11-03T16:54:52.792Z,9.17
2018-11-03T16:57:20.193Z,7.43
2018-11-03T16:59:47.625Z,8.67
2018-11-03T17:02:15.026Z,8.80
2018-11-03T17:04:42.442Z,7.93
2018-11-03T17:07:09.835Z,9.13
2018-11-03T17:09:37.252Z,9.17
2018-11-03T17:12:04.684Z,9.03
2018-11-03T17:14:32.112Z,9.40
2018-11-03T17:16:59.513Z,10.07
2018-11-03T17:19:26.928Z,9.83
2018-11-03T17:21:55.380Z,10.87
2018-11-03T17:24:22.803Z,11.70
2018-11-03T17:26:50.198Z,11.67
2018-11-03T17:29:17.638Z,11.70
2018-11-03T17:31:46.366Z,11.23
2018-11-03T17:34:13.782Z,9.97
2018-11-03T17:36:41.176Z,8.97
2018-11-03T17:39:10.288Z,8.87
2018-11-03T17:41:37.589Z,8.23
2018-11-03T17:44:04.995Z,9.30
2018-11-03T17:46:32.434Z,8.40
2018-11-03T17:48:59.830Z,9.03
2018-11-03T17:51:28.548Z,8.73
2018-11-03T17:53:57.263Z,9.57
2018-11-03T17:56:24.810Z,9.43
2018-11-03T17:58:52.236Z,10.50
2018-11-03T18:01:19.769Z,10.67
2018-11-03T18:03:47.052Z,10.90
2018-11-03T18:06:14.494Z,12.57
2018-11-03T18:08:42.672Z,11.90
2018-11-03T18:11:10.139Z,13.20
2018-11-03T18:13:37.597Z,12.80
2018-11-03T18:16:04.996Z,12.30
2018-11-03T18:18:32.407Z,11.50
2018-11-03T18:20:59.838Z,12.73
2018-11-03T18:23:27.232Z,12.10
2018-11-03T18:25:54.725Z,10.83
2018-11-03T18:28:25.067Z,10.50
2018-11-03T18:30:52.555Z,11.43
2018-11-03T18:33:20.061Z,11.53
2018-11-03T18:35:47.359Z,11.63
2018-11-03T18:38:14.767Z,12.70
2018-11-03T18:40:42.167Z,12.33
2018-11-03T18:43:09.620Z,11.77
2018-11-03T18:45:37.020Z,12.83
2018-11-03T18:48:04.446Z,11.97
2018-11-03T18:50:31.891Z,12.67
2018-11-03T18:52:59.357Z,14.00
2018-11-03T18:55:26.763Z,14.90
2018-11-03T18:57:54.233Z,14.93
2018-11-03T19:00:21.625Z,15.80
2018-11-03T19:02:49.090Z,17.67
2018-11-03T19:05:16.497Z,20.73
2018-11-03T19:07:43.951Z,32.03
2018-11-03T19:10:14.024Z,24.77
2018-11-03T19:12:41.419Z,29.73
2018-11-03T19:15:08.837Z,25.77
2018-11-03T19:17:36.240Z,26.20
2018-11-03T19:20:03.673Z,24.23
2018-11-03T19:22:31.101Z,23.17
2018-11-03T19:24:59.722Z,24.27
2018-11-03T19:27:27.229Z,25.20
2018-11-03T19:29:54.737Z,23.57
2018-11-03T19:32:22.073Z,21.33
2018-11-03T19:34:49.470Z,18.70
2018-11-03T19:37:16.893Z,16.73
2018-11-03T19:39:44.445Z,16.73
2018-11-03T19:42:11.835Z,18.13
2018-11-03T19:44:39.371Z,18.43
2018-11-03T19:47:06.828Z,17.47
2018-11-03T19:49:34.265Z,15.77
2018-11-03T19:52:01.696Z,17.47
2018-11-03T19:54:29.094Z,16.70
2018-11-03T19:56:56.485Z,17.47
2018-11-03T19:59:23.918Z,17.50
2018-11-03T20:01:51.362Z,17.53
2018-11-03T20:04:18.806Z,17.57
2018-11-03T20:06:46.212Z,17.70
2018-11-03T20:09:13.692Z,17.90
2018-11-03T20:11:41.098Z,18.87
2018-11-03T20:14:10.094Z,17.37
2018-11-03T20:16:35.905Z,18.93
2018-11-03T20:19:08.460Z,17.73
2018-11-03T20:21:35.970Z,16.93
2018-11-03T20:24:03.340Z,17.27
2018-11-03T20:26:30.761Z,17.13
2018-11-03T20:28:58.198Z,20.93
2018-11-03T20:31:25.654Z,20.00
2018-11-03T20:33:53.145Z,18.23
2018-11-03T20:36:20.561Z,18.60
2018-11-03T20:38:48.011Z,22.43
2018-11-03T20:41:15.423Z,21.67
2018-11-03T20:43:42.831Z,24.20
2018-11-03T20:46:10.257Z,21.77
2018-11-03T20:48:37.675Z,24.10
2018-11-03T20:51:05.116Z,21.73
2018-11-03T20:53:32.628Z,19.10
2018-11-03T20:55:59.974Z,18.87
2018-11-03T20:58:27.416Z,17.97
2018-11-03T21:00:54.888Z,18.27
2018-11-03T21:03:22.294Z,16.77
2018-11-03T21:05:49.806Z,18.07
2018-11-03T21:08:17.298Z,17.17
2018-11-03T21:10:44.720Z,17.50
2018-11-03T21:13:12.193Z,16.90
2018-11-03T21:15:39.664Z,16.00
2018-11-03T21:18:07.026Z,17.67
2018-11-03T21:20:34.496Z,17.47
2018-11-03T21:23:01.908Z,16.70
2018-11-03T21:25:29.412Z,16.73
2018-11-03T21:27:56.777Z,18.03
2018-11-03T21:30:24.192Z,18.23
2018-11-03T21:32:51.731Z,17.63
2018-11-03T21:35:19.017Z,16.63
2018-11-03T21:37:46.429Z,17.47
2018-11-03T21:40:13.971Z,19.17
2018-11-03T21:42:41.369Z,18.83
2018-11-03T21:45:08.800Z,17.73
2018-11-03T21:47:36.246Z,17.57
2018-11-03T21:50:03.638Z,16.90
2018-11-03T21:52:31.177Z,16.83
2018-11-03T21:54:58.565Z,17.87
2018-11-03T21:57:25.983Z,17.30
2018-11-03T21:59:53.492Z,17.17
2018-11-03T22:02:20.891Z,16.33
2018-11-03T22:04:48.341Z,17.63
2018-11-03T22:07:15.749Z,17.03
2018-11-03T22:09:43.148Z,15.67
2018-11-03T22:12:10.579Z,15.40
2018-11-03T22:14:37.976Z,15.60
2018-11-03T22:17:05.390Z,17.23
2018-11-03T22:19:32.802Z,18.60
2018-11-03T22:22:00.202Z,19.93
2018-11-03T22:24:27.626Z,17.53
2018-11-03T22:26:55.016Z,19.17
2018-11-03T22:29:22.438Z,17.83
2018-11-03T22:31:49.843Z,18.20
2018-11-03T22:34:17.310Z,18.60
2018-11-03T22:36:44.733Z,20.27
2018-11-03T22:39:12.159Z,22.17
2018-11-03T22:41:39.585Z,21.03
2018-11-03T22:44:07.005Z,21.90
2018-11-03T22:46:34.406Z,19.60
2018-11-03T22:49:01.828Z,19.27
2018-11-03T22:51:29.315Z,18.33
2018-11-03T22:53:56.662Z,18.17
2018-11-03T22:56:24.106Z,18.80
2018-11-03T22:58:51.555Z,18.97
2018-11-03T23:01:18.975Z,17.73
2018-11-03T23:03:46.380Z,18.07
2018-11-03T23:06:13.856Z,16.10
2018-11-03T23:08:41.258Z,17.27
2018-11-03T23:11:08.691Z,17.13
2018-11-03T23:13:36.086Z,17.77
2018-11-03T23:16:03.493Z,15.90
2018-11-03T23:18:30.923Z,16.20
2018-11-03T23:20:58.376Z,17.40
2018-11-03T23:23:25.768Z,16.97
2018-11-03T23:25:53.185Z,17.70
2018-11-03T23:28:20.601Z,16.30
2018-11-03T23:30:48.006Z,17.77
2018-11-03T23:33:15.444Z,17.03
2018-11-03T23:35:42.858Z,17.23
2018-11-03T23:38:10.266Z,22.73
2018-11-03T23:40:37.703Z,19.80
2018-11-03T23:43:05.120Z,17.17
2018-11-03T23:45:32.505Z,17.90
2018-11-03T23:47:59.923Z,17.03
2018-11-03T23:50:27.366Z,17.90
2018-11-03T23:52:54.841Z,16.87
2018-11-03T23:55:22.264Z,17.10
2018-11-03T23:57:49.668Z,17.33
